sensor_id;sensor_type;location;lat;lon;timestamp;temperature;humidity
37268;DHT22;23154;52.542;13.362;2022-10-13T00:00:22;7.90;99.90
37268;DHT22;23154;52.542;13.362;2022-10-13T00:02:47;7.90;99.90
37268;DHT22;23154;52.542;13.362;2022-10-13T00:05:13;7.90;99.90
37268;DHT22;23154;52.542;13.362;2022-10-13T00:07:38;8.00;99.90
37268;DHT22;23154;52.542;13.362;2022-10-13T00:10:04;8.00;99.90
37268;DHT22;23154;52.542;13.362;2022-10-13T00:12:29;7.90;99.90
37268;DHT22;23154;52.542;13.362;2022-10-13T00:14:55;8.00;99.90
37268;DHT22;23154;52.542;13.362;2022-10-13T00:17:22;7.90;99.90
37268;DHT22;23154;52.542;13.362;2022-10-13T00:19:48;7.70;99.90
37268;DHT22;23154;52.542;13.362;2022-10-13T00:22:13;7.70;99.90
37268;DHT22;23154;52.542;13.362;2022-10-13T00:24:39;7.60;99.90
37268;DHT22;23154;52.542;13.362;2022-10-13T00:27:04;7.50;99.90
37268;DHT22;23154;52.542;13.362;2022-10-13T00:29:30;7.50;99.90
37268;DHT22;23154;52.542;13.362;2022-10-13T00:31:55;7.40;99.90
37268;DHT22;23154;52.542;13.362;2022-10-13T00:34:21;7.40;99.90
37268;DHT22;23154;52.542;13.362;2022-10-13T00:36:46;7.50;99.90
37268;DHT22;23154;52.542;13.362;2022-10-13T00:39:12;7.40;99.90
37268;DHT22;23154;52.542;13.362;2022-10-13T00:41:37;7.40;99.90
37268;DHT22;23154;52.542;13.362;2022-10-13T00:44:04;7.30;99.90
37268;DHT22;23154;52.542;13.362;2022-10-13T00:46:33;7.20;99.90
37268;DHT22;23154;52.542;13.362;2022-10-13T00:49:01;7.20;99.90
37268;DHT22;23154;52.542;13.362;2022-10-13T00:51:29;7.30;99.90
37268;DHT22;23154;52.542;13.362;2022-10-13T00:53:54;7.30;99.90
37268;DHT22;23154;52.542;13.362;2022-10-13T00:56:21;7.20;99.90
37268;DHT22;23154;52.542;13.362;2022-10-13T00:58:46;7.20;99.90
37268;DHT22;23154;52.542;13.362;2022-10-13T01:01:12;7.10;99.90
37268;DHT22;23154;52.542;13.362;2022-10-13T01:03:38;7.10;99.90
37268;DHT22;23154;52.542;13.362;2022-10-13T01:06:04;7.00;99.90
37268;DHT22;23154;52.542;13.362;2022-10-13T01:08:29;7.00;99.90
37268;DHT22;23154;52.542;13.362;2022-10-13T01:13:47;6.90;99.90
37268;DHT22;23154;52.542;13.362;2022-10-13T01:18:52;7.00;99.90
37268;DHT22;23154;52.542;13.362;2022-10-13T01:21:32;6.90;99.90
37268;DHT22;23154;52.542;13.362;2022-10-13T01:31:49;6.80;99.90
37268;DHT22;23154;52.542;13.362;2022-10-13T01:34:19;6.80;99.90
37268;DHT22;23154;52.542;13.362;2022-10-13T01:37:07;6.70;99.90
37268;DHT22;23154;52.542;13.362;2022-10-13T01:42:31;6.80;99.90
37268;DHT22;23154;52.542;13.362;2022-10-13T01:44:59;6.90;99.90
37268;DHT22;23154;52.542;13.362;2022-10-13T01:47:26;6.70;99.90
37268;DHT22;23154;52.542;13.362;2022-10-13T01:49:53;6.70;99.90
37268;DHT22;23154;52.542;13.362;2022-10-13T01:52:19;6.70;99.90
37268;DHT22;23154;52.542;13.362;2022-10-13T01:54:46;6.80;99.90
37268;DHT22;23154;52.542;13.362;2022-10-13T01:57:31;6.80;99.90
37268;DHT22;23154;52.542;13.362;2022-10-13T02:00:02;6.80;99.90
37268;DHT22;23154;52.542;13.362;2022-10-13T02:02:51;6.70;99.90
37268;DHT22;23154;52.542;13.362;2022-10-13T02:05:22;6.80;99.90
37268;DHT22;23154;52.542;13.362;2022-10-13T02:08:10;6.80;99.90
37268;DHT22;23154;52.542;13.362;2022-10-13T02:13:03;6.70;99.90
37268;DHT22;23154;52.542;13.362;2022-10-13T02:15:38;6.60;99.90
37268;DHT22;23154;52.542;13.362;2022-10-13T02:18:04;6.60;99.90
37268;DHT22;23154;52.542;13.362;2022-10-13T02:20:31;6.60;99.90
37268;DHT22;23154;52.542;13.362;2022-10-13T02:22:59;6.50;99.90
37268;DHT22;23154;52.542;13.362;2022-10-13T02:25:25;6.50;99.90
37268;DHT22;23154;52.542;13.362;2022-10-13T02:27:51;6.60;99.90
37268;DHT22;23154;52.542;13.362;2022-10-13T02:30:25;6.50;99.90
37268;DHT22;23154;52.542;13.362;2022-10-13T02:32:51;6.60;99.90
37268;DHT22;23154;52.542;13.362;2022-10-13T02:35:16;6.50;99.90
37268;DHT22;23154;52.542;13.362;2022-10-13T02:37:42;6.40;99.90
37268;DHT22;23154;52.542;13.362;2022-10-13T02:40:08;6.40;99.90
37268;DHT22;23154;52.542;13.362;2022-10-13T02:42:33;6.50;99.90
37268;DHT22;23154;52.542;13.362;2022-10-13T02:44:59;6.40;99.90
37268;DHT22;23154;52.542;13.362;2022-10-13T02:47:24;6.50;99.90
37268;DHT22;23154;52.542;13.362;2022-10-13T02:49:49;6.50;99.90
37268;DHT22;23154;52.542;13.362;2022-10-13T02:52:15;6.40;99.90
37268;DHT22;23154;52.542;13.362;2022-10-13T02:54:41;6.50;99.90
37268;DHT22;23154;52.542;13.362;2022-10-13T02:57:06;6.40;99.90
37268;DHT22;23154;52.542;13.362;2022-10-13T02:59:31;6.40;99.90
37268;DHT22;23154;52.542;13.362;2022-10-13T03:01:57;6.40;99.90
37268;DHT22;23154;52.542;13.362;2022-10-13T03:04:22;6.40;99.90
37268;DHT22;23154;52.542;13.362;2022-10-13T03:06:48;6.40;99.90
37268;DHT22;23154;52.542;13.362;2022-10-13T03:09:13;6.50;99.90
37268;DHT22;23154;52.542;13.362;2022-10-13T03:11:39;6.60;99.90
37268;DHT22;23154;52.542;13.362;2022-10-13T03:14:04;6.60;99.90
37268;DHT22;23154;52.542;13.362;2022-10-13T03:16:30;6.50;99.90
37268;DHT22;23154;52.542;13.362;2022-10-13T03:18:55;6.50;99.90
37268;DHT22;23154;52.542;13.362;2022-10-13T03:21:21;6.60;99.90
37268;DHT22;23154;52.542;13.362;2022-10-13T03:23:46;6.60;99.90
37268;DHT22;23154;52.542;13.362;2022-10-13T03:26:12;6.60;99.90
37268;DHT22;23154;52.542;13.362;2022-10-13T03:28:37;6.60;99.90
37268;DHT22;23154;52.542;13.362;2022-10-13T03:31:03;6.50;99.90
37268;DHT22;23154;52.542;13.362;2022-10-13T03:33:29;6.60;99.90
37268;DHT22;23154;52.542;13.362;2022-10-13T03:35:57;6.50;99.90
37268;DHT22;23154;52.542;13.362;2022-10-13T03:38:22;6.50;99.90
37268;DHT22;23154;52.542;13.362;2022-10-13T03:40:48;6.60;99.90
37268;DHT22;23154;52.542;13.362;2022-10-13T03:43:13;6.60;99.90
37268;DHT22;23154;52.542;13.362;2022-10-13T03:45:38;6.60;99.90
37268;DHT22;23154;52.542;13.362;2022-10-13T03:48:04;6.70;99.90
37268;DHT22;23154;52.542;13.362;2022-10-13T03:50:29;6.70;99.90
37268;DHT22;23154;52.542;13.362;2022-10-13T03:52:55;6.90;99.90
37268;DHT22;23154;52.542;13.362;2022-10-13T03:55:20;6.90;99.90
37268;DHT22;23154;52.542;13.362;2022-10-13T03:57:46;6.90;99.90
37268;DHT22;23154;52.542;13.362;2022-10-13T04:00:11;7.00;99.90
37268;DHT22;23154;52.542;13.362;2022-10-13T04:02:37;7.00;99.90
37268;DHT22;23154;52.542;13.362;2022-10-13T04:05:03;7.00;99.90
37268;DHT22;23154;52.542;13.362;2022-10-13T04:07:28;7.10;99.90
37268;DHT22;23154;52.542;13.362;2022-10-13T04:09:53;7.20;99.90
37268;DHT22;23154;52.542;13.362;2022-10-13T04:12:19;7.20;99.90
37268;DHT22;23154;52.542;13.362;2022-10-13T04:14:44;7.20;99.90
37268;DHT22;23154;52.542;13.362;2022-10-13T04:17:10;7.30;99.90
37268;DHT22;23154;52.542;13.362;2022-10-13T04:19:35;7.20;99.90
37268;DHT22;23154;52.542;13.362;2022-10-13T04:22:01;7.20;99.90
37268;DHT22;23154;52.542;13.362;2022-10-13T04:24:26;7.30;99.90
37268;DHT22;23154;52.542;13.362;2022-10-13T04:26:52;7.30;99.90
37268;DHT22;23154;52.542;13.362;2022-10-13T04:29:18;7.40;99.90
37268;DHT22;23154;52.542;13.362;2022-10-13T04:31:43;7.30;99.90
37268;DHT22;23154;52.542;13.362;2022-10-13T04:34:09;7.20;99.90
37268;DHT22;23154;52.542;13.362;2022-10-13T04:36:35;7.20;99.90
37268;DHT22;23154;52.542;13.362;2022-10-13T04:39:00;7.20;99.90
37268;DHT22;23154;52.542;13.362;2022-10-13T04:41:26;7.20;99.90
37268;DHT22;23154;52.542;13.362;2022-10-13T04:43:51;7.20;99.90
37268;DHT22;23154;52.542;13.362;2022-10-13T04:46:19;7.20;99.90
37268;DHT22;23154;52.542;13.362;2022-10-13T04:48:45;7.30;99.90
37268;DHT22;23154;52.542;13.362;2022-10-13T04:51:11;7.30;99.90
37268;DHT22;23154;52.542;13.362;2022-10-13T04:53:37;7.30;99.90
37268;DHT22;23154;52.542;13.362;2022-10-13T04:56:04;7.30;99.90
37268;DHT22;23154;52.542;13.362;2022-10-13T04:58:30;7.30;99.90
37268;DHT22;23154;52.542;13.362;2022-10-13T05:00:55;7.40;99.90
37268;DHT22;23154;52.542;13.362;2022-10-13T05:03:21;7.30;99.90
37268;DHT22;23154;52.542;13.362;2022-10-13T05:05:47;7.40;99.90
37268;DHT22;23154;52.542;13.362;2022-10-13T05:08:12;7.30;99.90
37268;DHT22;23154;52.542;13.362;2022-10-13T05:10:38;7.40;99.90
37268;DHT22;23154;52.542;13.362;2022-10-13T05:13:03;7.40;99.90
37268;DHT22;23154;52.542;13.362;2022-10-13T05:15:29;7.40;99.90
37268;DHT22;23154;52.542;13.362;2022-10-13T05:17:54;7.40;99.90
37268;DHT22;23154;52.542;13.362;2022-10-13T05:20:20;7.40;99.90
37268;DHT22;23154;52.542;13.362;2022-10-13T05:22:45;7.40;99.90
37268;DHT22;23154;52.542;13.362;2022-10-13T05:25:10;7.40;99.90
37268;DHT22;23154;52.542;13.362;2022-10-13T05:27:36;7.50;99.90
37268;DHT22;23154;52.542;13.362;2022-10-13T05:30:01;7.50;99.90
37268;DHT22;23154;52.542;13.362;2022-10-13T05:32:27;7.50;99.90
37268;DHT22;23154;52.542;13.362;2022-10-13T05:34:52;7.50;99.90
37268;DHT22;23154;52.542;13.362;2022-10-13T05:37:18;7.50;99.90
37268;DHT22;23154;52.542;13.362;2022-10-13T05:39:43;7.50;99.90
37268;DHT22;23154;52.542;13.362;2022-10-13T05:42:09;7.50;99.90
37268;DHT22;23154;52.542;13.362;2022-10-13T05:44:35;7.60;99.90
37268;DHT22;23154;52.542;13.362;2022-10-13T05:47:01;7.60;99.90
37268;DHT22;23154;52.542;13.362;2022-10-13T05:49:27;7.60;99.90
37268;DHT22;23154;52.542;13.362;2022-10-13T05:51:54;7.70;99.90
37268;DHT22;23154;52.542;13.362;2022-10-13T05:54:20;7.70;99.90
37268;DHT22;23154;52.542;13.362;2022-10-13T05:56:52;7.80;99.90
37268;DHT22;23154;52.542;13.362;2022-10-13T05:59:19;7.90;99.90
37268;DHT22;23154;52.542;13.362;2022-10-13T06:01:46;7.90;99.90
37268;DHT22;23154;52.542;13.362;2022-10-13T06:04:16;7.90;99.90
37268;DHT22;23154;52.542;13.362;2022-10-13T06:06:43;7.90;99.90
37268;DHT22;23154;52.542;13.362;2022-10-13T06:09:09;7.90;99.90
37268;DHT22;23154;52.542;13.362;2022-10-13T06:11:34;7.90;99.90
37268;DHT22;23154;52.542;13.362;2022-10-13T06:14:00;7.80;99.90
37268;DHT22;23154;52.542;13.362;2022-10-13T06:16:25;7.80;99.90
37268;DHT22;23154;52.542;13.362;2022-10-13T06:18:51;7.70;99.90
37268;DHT22;23154;52.542;13.362;2022-10-13T06:21:16;7.70;99.90
37268;DHT22;23154;52.542;13.362;2022-10-13T06:23:42;7.80;99.90
37268;DHT22;23154;52.542;13.362;2022-10-13T06:26:07;7.70;99.90
37268;DHT22;23154;52.542;13.362;2022-10-13T06:28:33;7.80;99.90
37268;DHT22;23154;52.542;13.362;2022-10-13T06:30:59;7.90;99.90
37268;DHT22;23154;52.542;13.362;2022-10-13T06:33:24;7.90;99.90
37268;DHT22;23154;52.542;13.362;2022-10-13T06:35:50;7.90;99.90
37268;DHT22;23154;52.542;13.362;2022-10-13T06:38:16;8.00;99.90
37268;DHT22;23154;52.542;13.362;2022-10-13T06:40:42;8.10;99.90
37268;DHT22;23154;52.542;13.362;2022-10-13T06:43:08;8.20;99.90
37268;DHT22;23154;52.542;13.362;2022-10-13T06:45:33;8.30;99.90
37268;DHT22;23154;52.542;13.362;2022-10-13T06:47:59;8.30;99.90
37268;DHT22;23154;52.542;13.362;2022-10-13T06:50:24;8.30;99.90
37268;DHT22;23154;52.542;13.362;2022-10-13T06:52:50;8.30;99.90
37268;DHT22;23154;52.542;13.362;2022-10-13T06:55:15;8.30;99.90
37268;DHT22;23154;52.542;13.362;2022-10-13T06:57:41;8.20;99.90
37268;DHT22;23154;52.542;13.362;2022-10-13T07:00:07;8.20;99.90
37268;DHT22;23154;52.542;13.362;2022-10-13T07:02:32;8.30;99.90
37268;DHT22;23154;52.542;13.362;2022-10-13T07:04:58;8.40;99.90
37268;DHT22;23154;52.542;13.362;2022-10-13T07:07:24;8.50;99.90
37268;DHT22;23154;52.542;13.362;2022-10-13T07:09:49;8.50;99.90
37268;DHT22;23154;52.542;13.362;2022-10-13T07:12:15;8.60;99.90
37268;DHT22;23154;52.542;13.362;2022-10-13T07:14:40;8.70;99.90
37268;DHT22;23154;52.542;13.362;2022-10-13T07:17:06;8.70;99.90
37268;DHT22;23154;52.542;13.362;2022-10-13T07:19:32;8.80;99.90
37268;DHT22;23154;52.542;13.362;2022-10-13T07:21:57;9.00;99.90
37268;DHT22;23154;52.542;13.362;2022-10-13T07:24:23;9.10;99.90
37268;DHT22;23154;52.542;13.362;2022-10-13T07:26:48;9.20;99.90
37268;DHT22;23154;52.542;13.362;2022-10-13T07:29:14;9.20;99.90
37268;DHT22;23154;52.542;13.362;2022-10-13T07:31:41;9.20;99.90
37268;DHT22;23154;52.542;13.362;2022-10-13T07:34:07;9.30;99.90
37268;DHT22;23154;52.542;13.362;2022-10-13T07:36:33;9.50;99.90
37268;DHT22;23154;52.542;13.362;2022-10-13T07:39:00;9.50;99.90
37268;DHT22;23154;52.542;13.362;2022-10-13T07:41:27;9.70;99.90
37268;DHT22;23154;52.542;13.362;2022-10-13T07:43:56;9.80;99.90
37268;DHT22;23154;52.542;13.362;2022-10-13T07:46:22;9.80;99.90
37268;DHT22;23154;52.542;13.362;2022-10-13T07:48:47;9.90;99.90
37268;DHT22;23154;52.542;13.362;2022-10-13T07:51:13;10.10;99.90
37268;DHT22;23154;52.542;13.362;2022-10-13T07:53:39;10.30;99.90
37268;DHT22;23154;52.542;13.362;2022-10-13T07:56:05;10.40;99.90
37268;DHT22;23154;52.542;13.362;2022-10-13T07:58:32;10.50;99.90
37268;DHT22;23154;52.542;13.362;2022-10-13T08:00:58;10.50;99.90
37268;DHT22;23154;52.542;13.362;2022-10-13T08:03:24;10.50;99.90
37268;DHT22;23154;52.542;13.362;2022-10-13T08:05:50;10.70;99.90
37268;DHT22;23154;52.542;13.362;2022-10-13T08:08:15;11.00;99.90
37268;DHT22;23154;52.542;13.362;2022-10-13T08:10:41;11.30;99.90
37268;DHT22;23154;52.542;13.362;2022-10-13T08:13:06;11.50;99.90
37268;DHT22;23154;52.542;13.362;2022-10-13T08:15:31;11.00;99.90
37268;DHT22;23154;52.542;13.362;2022-10-13T08:17:57;10.90;99.90
37268;DHT22;23154;52.542;13.362;2022-10-13T08:20:23;10.90;99.90
37268;DHT22;23154;52.542;13.362;2022-10-13T08:22:48;10.80;99.90
37268;DHT22;23154;52.542;13.362;2022-10-13T08:25:13;11.00;99.90
37268;DHT22;23154;52.542;13.362;2022-10-13T08:27:39;10.80;99.90
37268;DHT22;23154;52.542;13.362;2022-10-13T08:30:05;11.10;99.90
37268;DHT22;23154;52.542;13.362;2022-10-13T08:32:30;11.10;99.90
37268;DHT22;23154;52.542;13.362;2022-10-13T08:34:56;11.10;99.90
37268;DHT22;23154;52.542;13.362;2022-10-13T08:37:21;11.10;99.90
37268;DHT22;23154;52.542;13.362;2022-10-13T08:39:47;11.20;99.90
37268;DHT22;23154;52.542;13.362;2022-10-13T08:42:14;11.30;99.90
37268;DHT22;23154;52.542;13.362;2022-10-13T08:44:41;11.50;99.90
37268;DHT22;23154;52.542;13.362;2022-10-13T08:49:36;11.90;99.90
37268;DHT22;23154;52.542;13.362;2022-10-13T08:52:03;11.70;99.90
37268;DHT22;23154;52.542;13.362;2022-10-13T08:54:29;12.00;99.90
37268;DHT22;23154;52.542;13.362;2022-10-13T08:56:54;12.20;99.90
37268;DHT22;23154;52.542;13.362;2022-10-13T08:59:20;12.60;99.90
37268;DHT22;23154;52.542;13.362;2022-10-13T09:01:46;12.70;99.90
37268;DHT22;23154;52.542;13.362;2022-10-13T09:04:15;13.00;99.90
37268;DHT22;23154;52.542;13.362;2022-10-13T09:09:11;13.30;99.90
37268;DHT22;23154;52.542;13.362;2022-10-13T09:11:41;13.60;99.90
37268;DHT22;23154;52.542;13.362;2022-10-13T09:14:09;13.70;99.90
37268;DHT22;23154;52.542;13.362;2022-10-13T09:19:34;13.80;99.90
37268;DHT22;23154;52.542;13.362;2022-10-13T09:24:20;13.60;99.90
37268;DHT22;23154;52.542;13.362;2022-10-13T09:26:47;13.80;99.90
37268;DHT22;23154;52.542;13.362;2022-10-13T09:29:17;13.70;99.90
37268;DHT22;23154;52.542;13.362;2022-10-13T09:31:43;13.60;99.90
37268;DHT22;23154;52.542;13.362;2022-10-13T09:39:21;13.20;99.90
37268;DHT22;23154;52.542;13.362;2022-10-13T09:41:47;13.40;99.90
37268;DHT22;23154;52.542;13.362;2022-10-13T09:44:13;13.60;99.90
37268;DHT22;23154;52.542;13.362;2022-10-13T09:46:57;14.00;99.90
37268;DHT22;23154;52.542;13.362;2022-10-13T09:49:39;14.10;99.90
37268;DHT22;23154;52.542;13.362;2022-10-13T09:57:10;14.00;99.90
37268;DHT22;23154;52.542;13.362;2022-10-13T09:59:38;13.80;99.90
37268;DHT22;23154;52.542;13.362;2022-10-13T10:04:42;14.00;99.90
37268;DHT22;23154;52.542;13.362;2022-10-13T10:07:09;14.10;99.90
37268;DHT22;23154;52.542;13.362;2022-10-13T10:09:40;14.00;99.90
37268;DHT22;23154;52.542;13.362;2022-10-13T10:12:08;14.10;99.90
37268;DHT22;23154;52.542;13.362;2022-10-13T10:14:37;14.10;99.90
37268;DHT22;23154;52.542;13.362;2022-10-13T10:22:33;14.50;99.90
37268;DHT22;23154;52.542;13.362;2022-10-13T10:27:37;14.70;99.90
37268;DHT22;23154;52.542;13.362;2022-10-13T10:30:04;14.90;99.90
37268;DHT22;23154;52.542;13.362;2022-10-13T10:32:34;15.00;99.90
37268;DHT22;23154;52.542;13.362;2022-10-13T10:45:26;15.60;99.90
37268;DHT22;23154;52.542;13.362;2022-10-13T10:47:54;15.80;99.90
37268;DHT22;23154;52.542;13.362;2022-10-13T10:50:21;15.90;99.90
37268;DHT22;23154;52.542;13.362;2022-10-13T10:55:27;16.20;99.90
37268;DHT22;23154;52.542;13.362;2022-10-13T10:58:03;16.30;99.90
37268;DHT22;23154;52.542;13.362;2022-10-13T11:00:32;16.30;99.90
37268;DHT22;23154;52.542;13.362;2022-10-13T11:03:01;16.00;99.90
37268;DHT22;23154;52.542;13.362;2022-10-13T11:08:24;16.10;99.90
37268;DHT22;23154;52.542;13.362;2022-10-13T11:11:03;16.00;99.90
37268;DHT22;23154;52.542;13.362;2022-10-13T11:13:47;15.90;99.90
37268;DHT22;23154;52.542;13.362;2022-10-13T11:18:58;16.10;99.90
37268;DHT22;23154;52.542;13.362;2022-10-13T11:27:21;16.30;99.90
37268;DHT22;23154;52.542;13.362;2022-10-13T11:45:39;16.40;99.90
37268;DHT22;23154;52.542;13.362;2022-10-13T11:55:47;16.80;99.90
37268;DHT22;23154;52.542;13.362;2022-10-13T11:58:18;16.70;99.90
37268;DHT22;23154;52.542;13.362;2022-10-13T12:03:20;16.90;99.90
37268;DHT22;23154;52.542;13.362;2022-10-13T12:05:46;17.20;99.90
37268;DHT22;23154;52.542;13.362;2022-10-13T12:08:12;17.40;99.90
37268;DHT22;23154;52.542;13.362;2022-10-13T12:10:38;17.40;99.90
37268;DHT22;23154;52.542;13.362;2022-10-13T12:13:03;17.50;99.90
37268;DHT22;23154;52.542;13.362;2022-10-13T12:17:58;17.60;99.90
37268;DHT22;23154;52.542;13.362;2022-10-13T12:20:28;17.20;99.90
37268;DHT22;23154;52.542;13.362;2022-10-13T12:22:53;17.10;99.90
37268;DHT22;23154;52.542;13.362;2022-10-13T12:25:23;17.00;99.90
37268;DHT22;23154;52.542;13.362;2022-10-13T12:27:53;17.20;99.90
37268;DHT22;23154;52.542;13.362;2022-10-13T12:32:49;17.20;99.90
37268;DHT22;23154;52.542;13.362;2022-10-13T12:35:18;17.40;99.90
37268;DHT22;23154;52.542;13.362;2022-10-13T12:37:45;17.60;99.90
37268;DHT22;23154;52.542;13.362;2022-10-13T12:40:12;17.80;99.90
37268;DHT22;23154;52.542;13.362;2022-10-13T12:42:38;17.70;99.90
37268;DHT22;23154;52.542;13.362;2022-10-13T12:45:05;17.80;99.90
37268;DHT22;23154;52.542;13.362;2022-10-13T12:47:36;17.80;99.90
37268;DHT22;23154;52.542;13.362;2022-10-13T12:55:26;17.50;99.90
37268;DHT22;23154;52.542;13.362;2022-10-13T12:57:52;17.40;99.90
37268;DHT22;23154;52.542;13.362;2022-10-13T13:02:50;17.50;99.90
37268;DHT22;23154;52.542;13.362;2022-10-13T13:07:57;17.20;99.90
37268;DHT22;23154;52.542;13.362;2022-10-13T13:10:23;17.10;99.90
37268;DHT22;23154;52.542;13.362;2022-10-13T13:12:49;17.20;99.90
37268;DHT22;23154;52.542;13.362;2022-10-13T13:15:19;17.20;99.90
37268;DHT22;23154;52.542;13.362;2022-10-13T13:17:45;17.10;99.90
37268;DHT22;23154;52.542;13.362;2022-10-13T13:20:18;16.80;99.90
37268;DHT22;23154;52.542;13.362;2022-10-13T13:22:43;16.80;99.90
37268;DHT22;23154;52.542;13.362;2022-10-13T13:25:09;16.70;99.90
37268;DHT22;23154;52.542;13.362;2022-10-13T13:27:36;16.80;99.90
37268;DHT22;23154;52.542;13.362;2022-10-13T13:30:02;16.90;99.90
37268;DHT22;23154;52.542;13.362;2022-10-13T13:32:28;16.90;99.90
37268;DHT22;23154;52.542;13.362;2022-10-13T13:34:55;17.00;99.90
37268;DHT22;23154;52.542;13.362;2022-10-13T13:37:30;17.10;99.90
37268;DHT22;23154;52.542;13.362;2022-10-13T13:39:57;17.00;99.90
37268;DHT22;23154;52.542;13.362;2022-10-13T13:42:23;17.00;99.90
37268;DHT22;23154;52.542;13.362;2022-10-13T13:44:48;17.00;99.90
37268;DHT22;23154;52.542;13.362;2022-10-13T13:47:18;17.00;99.90
37268;DHT22;23154;52.542;13.362;2022-10-13T13:49:44;17.10;99.90
37268;DHT22;23154;52.542;13.362;2022-10-13T13:52:10;17.00;99.90
37268;DHT22;23154;52.542;13.362;2022-10-13T13:54:35;17.30;99.90
37268;DHT22;23154;52.542;13.362;2022-10-13T13:57:00;17.30;99.90
37268;DHT22;23154;52.542;13.362;2022-10-13T13:59:26;17.10;99.90
37268;DHT22;23154;52.542;13.362;2022-10-13T14:01:51;17.30;99.90
37268;DHT22;23154;52.542;13.362;2022-10-13T14:04:17;17.30;99.90
37268;DHT22;23154;52.542;13.362;2022-10-13T14:06:42;17.50;99.90
37268;DHT22;23154;52.542;13.362;2022-10-13T14:09:08;17.60;99.90
37268;DHT22;23154;52.542;13.362;2022-10-13T14:11:33;17.70;99.90
37268;DHT22;23154;52.542;13.362;2022-10-13T14:13:59;17.70;99.90
37268;DHT22;23154;52.542;13.362;2022-10-13T14:16:26;17.70;99.90
37268;DHT22;23154;52.542;13.362;2022-10-13T14:18:55;17.70;99.90
37268;DHT22;23154;52.542;13.362;2022-10-13T14:21:20;17.60;99.90
37268;DHT22;23154;52.542;13.362;2022-10-13T14:23:46;17.30;99.90
37268;DHT22;23154;52.542;13.362;2022-10-13T14:26:12;17.50;99.90
37268;DHT22;23154;52.542;13.362;2022-10-13T14:28:41;17.10;99.90
37268;DHT22;23154;52.542;13.362;2022-10-13T14:31:07;17.00;99.90
37268;DHT22;23154;52.542;13.362;2022-10-13T14:33:32;17.00;99.90
37268;DHT22;23154;52.542;13.362;2022-10-13T14:35:59;17.00;99.90
37268;DHT22;23154;52.542;13.362;2022-10-13T14:38:25;17.00;99.90
37268;DHT22;23154;52.542;13.362;2022-10-13T14:40:51;17.00;99.90
37268;DHT22;23154;52.542;13.362;2022-10-13T14:43:16;16.80;99.90
37268;DHT22;23154;52.542;13.362;2022-10-13T14:45:41;16.70;99.90
37268;DHT22;23154;52.542;13.362;2022-10-13T14:48:07;16.70;99.90
37268;DHT22;23154;52.542;13.362;2022-10-13T14:50:32;16.90;99.90
37268;DHT22;23154;52.542;13.362;2022-10-13T14:52:58;17.20;99.90
37268;DHT22;23154;52.542;13.362;2022-10-13T14:55:23;17.30;99.90
37268;DHT22;23154;52.542;13.362;2022-10-13T14:57:49;17.40;99.90
37268;DHT22;23154;52.542;13.362;2022-10-13T15:00:14;17.20;99.90
37268;DHT22;23154;52.542;13.362;2022-10-13T15:02:40;17.40;99.90
37268;DHT22;23154;52.542;13.362;2022-10-13T15:05:06;17.30;99.90
37268;DHT22;23154;52.542;13.362;2022-10-13T15:07:32;17.10;99.90
37268;DHT22;23154;52.542;13.362;2022-10-13T15:09:57;16.80;99.90
37268;DHT22;23154;52.542;13.362;2022-10-13T15:12:23;16.70;99.90
37268;DHT22;23154;52.542;13.362;2022-10-13T15:14:49;16.50;99.90
37268;DHT22;23154;52.542;13.362;2022-10-13T15:17:14;16.30;99.90
37268;DHT22;23154;52.542;13.362;2022-10-13T15:19:39;16.20;99.90
37268;DHT22;23154;52.542;13.362;2022-10-13T15:22:05;16.00;99.90
37268;DHT22;23154;52.542;13.362;2022-10-13T15:24:31;15.80;99.90
37268;DHT22;23154;52.542;13.362;2022-10-13T15:26:56;15.60;99.90
37268;DHT22;23154;52.542;13.362;2022-10-13T15:29:22;15.50;99.90
37268;DHT22;23154;52.542;13.362;2022-10-13T15:31:47;15.30;99.90
37268;DHT22;23154;52.542;13.362;2022-10-13T15:34:14;15.10;99.90
37268;DHT22;23154;52.542;13.362;2022-10-13T15:36:39;15.00;99.90
37268;DHT22;23154;52.542;13.362;2022-10-13T15:39:05;14.90;99.90
37268;DHT22;23154;52.542;13.362;2022-10-13T15:41:30;14.70;99.90
37268;DHT22;23154;52.542;13.362;2022-10-13T15:43:56;14.60;99.90
37268;DHT22;23154;52.542;13.362;2022-10-13T15:46:21;14.60;99.90
37268;DHT22;23154;52.542;13.362;2022-10-13T15:48:51;14.50;99.90
37268;DHT22;23154;52.542;13.362;2022-10-13T15:51:21;14.40;99.90
37268;DHT22;23154;52.542;13.362;2022-10-13T15:53:48;14.30;99.90
37268;DHT22;23154;52.542;13.362;2022-10-13T15:56:14;14.20;99.90
37268;DHT22;23154;52.542;13.362;2022-10-13T15:58:40;14.10;99.90
37268;DHT22;23154;52.542;13.362;2022-10-13T16:01:06;14.10;99.90
37268;DHT22;23154;52.542;13.362;2022-10-13T16:03:32;14.10;99.90
37268;DHT22;23154;52.542;13.362;2022-10-13T16:05:58;14.10;99.90
37268;DHT22;23154;52.542;13.362;2022-10-13T16:08:26;14.00;99.90
37268;DHT22;23154;52.542;13.362;2022-10-13T16:10:52;14.00;99.90
37268;DHT22;23154;52.542;13.362;2022-10-13T16:13:17;14.00;99.90
37268;DHT22;23154;52.542;13.362;2022-10-13T16:15:43;14.00;99.90
37268;DHT22;23154;52.542;13.362;2022-10-13T16:18:08;14.00;99.90
37268;DHT22;23154;52.542;13.362;2022-10-13T16:20:34;13.90;99.90
37268;DHT22;23154;52.542;13.362;2022-10-13T16:23:02;13.90;99.90
37268;DHT22;23154;52.542;13.362;2022-10-13T16:25:28;13.90;99.90
37268;DHT22;23154;52.542;13.362;2022-10-13T16:27:54;13.90;99.90
37268;DHT22;23154;52.542;13.362;2022-10-13T16:30:20;13.80;99.90
37268;DHT22;23154;52.542;13.362;2022-10-13T16:32:45;13.80;99.90
37268;DHT22;23154;52.542;13.362;2022-10-13T16:35:11;13.70;99.90
37268;DHT22;23154;52.542;13.362;2022-10-13T16:37:36;13.60;99.90
37268;DHT22;23154;52.542;13.362;2022-10-13T16:40:02;13.60;99.90
37268;DHT22;23154;52.542;13.362;2022-10-13T16:42:27;13.60;99.90
37268;DHT22;23154;52.542;13.362;2022-10-13T16:44:53;13.60;99.90
37268;DHT22;23154;52.542;13.362;2022-10-13T16:47:18;13.50;99.90
37268;DHT22;23154;52.542;13.362;2022-10-13T16:49:44;13.40;99.90
37268;DHT22;23154;52.542;13.362;2022-10-13T16:52:09;13.40;99.90
37268;DHT22;23154;52.542;13.362;2022-10-13T16:54:35;13.40;99.90
37268;DHT22;23154;52.542;13.362;2022-10-13T16:57:00;13.30;99.90
37268;DHT22;23154;52.542;13.362;2022-10-13T16:59:26;13.30;99.90
37268;DHT22;23154;52.542;13.362;2022-10-13T17:01:51;13.30;99.90
37268;DHT22;23154;52.542;13.362;2022-10-13T17:04:17;13.30;99.90
37268;DHT22;23154;52.542;13.362;2022-10-13T17:06:42;13.30;99.90
37268;DHT22;23154;52.542;13.362;2022-10-13T17:09:08;13.30;99.90
37268;DHT22;23154;52.542;13.362;2022-10-13T17:11:34;13.30;99.90
37268;DHT22;23154;52.542;13.362;2022-10-13T17:14:01;13.30;99.90